sensor_id;sensor_type;location;lat;lon;timestamp;P1;durP1;ratioP1;P2;durP2;ratioP2
64094;SDS011;50353;51.420;5.682;2022-08-18T00:04:03;59.30;;;42.55;;
64094;SDS011;50353;51.420;5.682;2022-08-18T00:06:29;57.53;;;41.33;;
64094;SDS011;50353;51.420;5.682;2022-08-18T00:08:55;61.40;;;42.07;;
64094;SDS011;50353;51.420;5.682;2022-08-18T00:11:25;67.63;;;43.42;;
64094;SDS011;50353;51.420;5.682;2022-08-18T00:16:17;62.87;;;41.23;;
64094;SDS011;50353;51.420;5.682;2022-08-18T00:18:42;65.17;;;40.23;;
64094;SDS011;50353;51.420;5.682;2022-08-18T00:21:07;54.23;;;38.70;;
64094;SDS011;50353;51.420;5.682;2022-08-18T00:23:32;56.63;;;38.10;;
64094;SDS011;50353;51.420;5.682;2022-08-18T00:25:58;62.77;;;38.10;;
64094;SDS011;50353;51.420;5.682;2022-08-18T00:28:24;62.00;;;42.30;;
64094;SDS011;50353;51.420;5.682;2022-08-18T00:30:49;58.77;;;39.60;;
64094;SDS011;50353;51.420;5.682;2022-08-18T00:33:14;64.00;;;41.27;;
64094;SDS011;50353;51.420;5.682;2022-08-18T00:35:39;61.37;;;39.83;;
64094;SDS011;50353;51.420;5.682;2022-08-18T00:38:06;40.80;;;29.77;;
64094;SDS011;50353;51.420;5.682;2022-08-18T00:40:36;49.08;;;31.48;;
64094;SDS011;50353;51.420;5.682;2022-08-18T00:43:05;57.00;;;38.38;;
64094;SDS011;50353;51.420;5.682;2022-08-18T00:45:38;55.58;;;38.33;;
64094;SDS011;50353;51.420;5.682;2022-08-18T00:48:07;54.55;;;35.97;;
64094;SDS011;50353;51.420;5.682;2022-08-18T00:55:54;57.80;;;40.83;;
64094;SDS011;50353;51.420;5.682;2022-08-18T00:58:45;55.47;;;37.83;;
64094;SDS011;50353;51.420;5.682;2022-08-18T01:01:13;53.95;;;36.40;;
64094;SDS011;50353;51.420;5.682;2022-08-18T01:03:41;39.95;;;27.92;;
64094;SDS011;50353;51.420;5.682;2022-08-18T01:09:03;54.58;;;39.00;;
64094;SDS011;50353;51.420;5.682;2022-08-18T01:11:29;54.45;;;36.67;;
64094;SDS011;50353;51.420;5.682;2022-08-18T01:13:56;46.87;;;32.50;;
64094;SDS011;50353;51.420;5.682;2022-08-18T01:16:22;53.85;;;37.45;;
64094;SDS011;50353;51.420;5.682;2022-08-18T01:19:06;62.17;;;40.90;;
64094;SDS011;50353;51.420;5.682;2022-08-18T01:21:51;58.22;;;37.90;;
64094;SDS011;50353;51.420;5.682;2022-08-18T01:24:28;54.97;;;38.78;;
64094;SDS011;50353;51.420;5.682;2022-08-18T01:27:16;56.28;;;39.00;;
64094;SDS011;50353;51.420;5.682;2022-08-18T01:29:43;54.38;;;38.10;;
64094;SDS011;50353;51.420;5.682;2022-08-18T01:32:10;62.78;;;41.33;;
64094;SDS011;50353;51.420;5.682;2022-08-18T01:34:38;56.45;;;39.50;;
64094;SDS011;50353;51.420;5.682;2022-08-18T01:37:03;55.53;;;38.47;;
64094;SDS011;50353;51.420;5.682;2022-08-18T01:39:29;67.35;;;43.53;;
64094;SDS011;50353;51.420;5.682;2022-08-18T01:41:55;65.03;;;40.03;;
64094;SDS011;50353;51.420;5.682;2022-08-18T01:44:20;61.63;;;42.17;;
64094;SDS011;50353;51.420;5.682;2022-08-18T01:46:45;60.20;;;40.23;;
64094;SDS011;50353;51.420;5.682;2022-08-18T01:49:11;62.27;;;40.33;;
64094;SDS011;50353;51.420;5.682;2022-08-18T01:51:37;57.97;;;39.97;;
64094;SDS011;50353;51.420;5.682;2022-08-18T01:54:05;57.60;;;38.63;;
64094;SDS011;50353;51.420;5.682;2022-08-18T01:56:31;46.40;;;32.58;;
64094;SDS011;50353;51.420;5.682;2022-08-18T01:58:57;53.27;;;36.93;;
64094;SDS011;50353;51.420;5.682;2022-08-18T02:01:22;53.30;;;36.30;;
64094;SDS011;50353;51.420;5.682;2022-08-18T02:03:50;56.20;;;37.30;;
64094;SDS011;50353;51.420;5.682;2022-08-18T02:06:18;52.50;;;35.92;;
64094;SDS011;50353;51.420;5.682;2022-08-18T02:08:44;56.53;;;36.00;;
64094;SDS011;50353;51.420;5.682;2022-08-18T02:11:11;54.35;;;35.92;;
64094;SDS011;50353;51.420;5.682;2022-08-18T02:13:37;51.90;;;36.55;;
64094;SDS011;50353;51.420;5.682;2022-08-18T02:16:03;56.20;;;35.60;;
64094;SDS011;50353;51.420;5.682;2022-08-18T02:18:29;54.40;;;36.80;;
64094;SDS011;50353;51.420;5.682;2022-08-18T02:20:58;60.60;;;38.63;;
64094;SDS011;50353;51.420;5.682;2022-08-18T02:23:31;52.92;;;36.13;;
64094;SDS011;50353;51.420;5.682;2022-08-18T02:25:57;53.10;;;37.37;;
64094;SDS011;50353;51.420;5.682;2022-08-18T02:28:22;53.33;;;37.13;;
64094;SDS011;50353;51.420;5.682;2022-08-18T02:30:48;53.40;;;35.07;;
64094;SDS011;50353;51.420;5.682;2022-08-18T02:33:13;55.53;;;37.27;;
64094;SDS011;50353;51.420;5.682;2022-08-18T02:35:38;55.83;;;38.07;;
64094;SDS011;50353;51.420;5.682;2022-08-18T02:38:05;56.70;;;38.37;;
64094;SDS011;50353;51.420;5.682;2022-08-18T02:40:32;55.20;;;36.53;;
64094;SDS011;50353;51.420;5.682;2022-08-18T02:42:58;50.67;;;36.83;;
64094;SDS011;50353;51.420;5.682;2022-08-18T02:45:29;52.20;;;35.85;;
64094;SDS011;50353;51.420;5.682;2022-08-18T02:47:54;51.63;;;36.70;;
64094;SDS011;50353;51.420;5.682;2022-08-18T02:50:20;57.60;;;37.63;;
64094;SDS011;50353;51.420;5.682;2022-08-18T02:52:46;62.60;;;40.00;;
64094;SDS011;50353;51.420;5.682;2022-08-18T02:55:12;53.10;;;37.77;;
64094;SDS011;50353;51.420;5.682;2022-08-18T02:57:45;57.97;;;37.77;;
64094;SDS011;50353;51.420;5.682;2022-08-18T03:00:15;56.10;;;36.10;;
64094;SDS011;50353;51.420;5.682;2022-08-18T03:02:49;59.63;;;39.75;;
64094;SDS011;50353;51.420;5.682;2022-08-18T03:05:16;58.72;;;37.53;;
64094;SDS011;50353;51.420;5.682;2022-08-18T03:10:08;59.47;;;38.33;;
64094;SDS011;50353;51.420;5.682;2022-08-18T03:12:34;52.57;;;34.03;;
64094;SDS011;50353;51.420;5.682;2022-08-18T03:14:59;56.60;;;36.30;;
64094;SDS011;50353;51.420;5.682;2022-08-18T03:17:26;38.53;;;24.65;;
64094;SDS011;50353;51.420;5.682;2022-08-18T03:19:51;50.23;;;35.77;;
64094;SDS011;50353;51.420;5.682;2022-08-18T03:22:16;37.17;;;22.77;;
64094;SDS011;50353;51.420;5.682;2022-08-18T03:24:42;59.80;;;34.73;;
64094;SDS011;50353;51.420;5.682;2022-08-18T03:27:07;53.77;;;33.60;;
64094;SDS011;50353;51.420;5.682;2022-08-18T03:29:33;55.67;;;36.10;;
64094;SDS011;50353;51.420;5.682;2022-08-18T03:34:25;61.92;;;36.65;;
64094;SDS011;50353;51.420;5.682;2022-08-18T03:36:50;48.30;;;33.87;;
64094;SDS011;50353;51.420;5.682;2022-08-18T03:39:16;46.07;;;32.07;;
64094;SDS011;50353;51.420;5.682;2022-08-18T03:44:10;52.67;;;33.53;;
64094;SDS011;50353;51.420;5.682;2022-08-18T03:46:36;46.88;;;32.45;;
64094;SDS011;50353;51.420;5.682;2022-08-18T03:49:03;48.05;;;31.83;;
64094;SDS011;50353;51.420;5.682;2022-08-18T03:51:30;44.93;;;31.87;;
64094;SDS011;50353;51.420;5.682;2022-08-18T03:53:57;48.97;;;31.73;;
64094;SDS011;50353;51.420;5.682;2022-08-18T03:56:25;51.00;;;33.08;;
64094;SDS011;50353;51.420;5.682;2022-08-18T03:58:57;49.92;;;31.83;;
64094;SDS011;50353;51.420;5.682;2022-08-18T04:01:26;52.17;;;32.88;;
64094;SDS011;50353;51.420;5.682;2022-08-18T04:03:55;47.70;;;32.13;;
64094;SDS011;50353;51.420;5.682;2022-08-18T04:06:26;45.08;;;32.35;;
64094;SDS011;50353;51.420;5.682;2022-08-18T04:08:55;47.92;;;30.63;;
64094;SDS011;50353;51.420;5.682;2022-08-18T04:11:22;51.35;;;33.90;;
64094;SDS011;50353;51.420;5.682;2022-08-18T04:16:14;54.67;;;33.83;;
64094;SDS011;50353;51.420;5.682;2022-08-18T04:18:40;48.77;;;33.77;;
64094;SDS011;50353;51.420;5.682;2022-08-18T04:21:07;53.70;;;35.33;;
64094;SDS011;50353;51.420;5.682;2022-08-18T04:23:34;50.53;;;33.38;;
64094;SDS011;50353;51.420;5.682;2022-08-18T04:26:02;47.90;;;33.88;;
64094;SDS011;50353;51.420;5.682;2022-08-18T04:28:29;48.78;;;33.10;;
64094;SDS011;50353;51.420;5.682;2022-08-18T04:30:55;62.15;;;35.55;;
64094;SDS011;50353;51.420;5.682;2022-08-18T04:33:24;56.33;;;36.15;;
64094;SDS011;50353;51.420;5.682;2022-08-18T04:35:50;49.33;;;32.47;;
64094;SDS011;50353;51.420;5.682;2022-08-18T04:38:16;53.03;;;33.23;;
64094;SDS011;50353;51.420;5.682;2022-08-18T04:40:41;49.67;;;32.63;;
64094;SDS011;50353;51.420;5.682;2022-08-18T04:43:07;48.97;;;32.70;;
64094;SDS011;50353;51.420;5.682;2022-08-18T04:45:39;45.00;;;30.77;;
64094;SDS011;50353;51.420;5.682;2022-08-18T04:48:05;48.03;;;30.33;;
64094;SDS011;50353;51.420;5.682;2022-08-18T04:50:31;51.10;;;29.97;;
64094;SDS011;50353;51.420;5.682;2022-08-18T04:52:56;47.40;;;31.00;;
64094;SDS011;50353;51.420;5.682;2022-08-18T04:55:50;50.58;;;31.45;;
64094;SDS011;50353;51.420;5.682;2022-08-18T04:58:17;43.45;;;28.42;;
64094;SDS011;50353;51.420;5.682;2022-08-18T05:03:10;42.40;;;29.88;;
64094;SDS011;50353;51.420;5.682;2022-08-18T05:05:36;49.35;;;30.25;;
64094;SDS011;50353;51.420;5.682;2022-08-18T05:08:02;45.13;;;31.40;;
64094;SDS011;50353;51.420;5.682;2022-08-18T05:10:27;49.30;;;32.03;;
64094;SDS011;50353;51.420;5.682;2022-08-18T05:12:53;53.90;;;33.50;;
64094;SDS011;50353;51.420;5.682;2022-08-18T05:15:18;47.90;;;30.63;;
64094;SDS011;50353;51.420;5.682;2022-08-18T05:17:44;47.57;;;30.10;;
64094;SDS011;50353;51.420;5.682;2022-08-18T05:20:09;50.40;;;33.10;;
64094;SDS011;50353;51.420;5.682;2022-08-18T05:22:39;59.07;;;36.47;;
64094;SDS011;50353;51.420;5.682;2022-08-18T05:25:06;34.55;;;21.60;;
64094;SDS011;50353;51.420;5.682;2022-08-18T05:27:34;58.78;;;37.70;;
64094;SDS011;50353;51.420;5.682;2022-08-18T05:30:02;55.28;;;36.13;;
64094;SDS011;50353;51.420;5.682;2022-08-18T05:32:31;55.17;;;33.58;;
64094;SDS011;50353;51.420;5.682;2022-08-18T05:35:03;36.42;;;24.42;;
64094;SDS011;50353;51.420;5.682;2022-08-18T05:37:39;42.45;;;26.58;;
64094;SDS011;50353;51.420;5.682;2022-08-18T05:42:55;56.03;;;35.83;;
64094;SDS011;50353;51.420;5.682;2022-08-18T05:45:23;39.08;;;25.23;;
64094;SDS011;50353;51.420;5.682;2022-08-18T05:47:49;51.00;;;32.33;;
64094;SDS011;50353;51.420;5.682;2022-08-18T05:50:16;54.30;;;33.67;;
64094;SDS011;50353;51.420;5.682;2022-08-18T05:52:54;50.47;;;31.83;;
64094;SDS011;50353;51.420;5.682;2022-08-18T05:58:31;57.35;;;35.63;;
64094;SDS011;50353;51.420;5.682;2022-08-18T06:01:03;57.05;;;35.33;;
64094;SDS011;50353;51.420;5.682;2022-08-18T06:03:47;49.67;;;32.45;;
64094;SDS011;50353;51.420;5.682;2022-08-18T06:06:17;40.40;;;26.65;;
64094;SDS011;50353;51.420;5.682;2022-08-18T06:11:40;36.85;;;23.42;;
64094;SDS011;50353;51.420;5.682;2022-08-18T06:14:07;31.58;;;22.02;;
64094;SDS011;50353;51.420;5.682;2022-08-18T06:16:36;47.50;;;32.80;;
64094;SDS011;50353;51.420;5.682;2022-08-18T06:30:44;53.13;;;32.42;;
64094;SDS011;50353;51.420;5.682;2022-08-18T06:36:16;43.47;;;29.77;;
64094;SDS011;50353;51.420;5.682;2022-08-18T06:41:42;44.92;;;26.58;;
64094;SDS011;50353;51.420;5.682;2022-08-18T06:44:28;44.80;;;27.42;;
64094;SDS011;50353;51.420;5.682;2022-08-18T06:47:00;45.78;;;28.23;;
64094;SDS011;50353;51.420;5.682;2022-08-18T06:49:42;40.83;;;27.00;;
64094;SDS011;50353;51.420;5.682;2022-08-18T06:52:50;43.00;;;25.45;;
64094;SDS011;50353;51.420;5.682;2022-08-18T06:55:17;39.92;;;25.67;;
64094;SDS011;50353;51.420;5.682;2022-08-18T06:57:58;36.03;;;24.63;;
64094;SDS011;50353;51.420;5.682;2022-08-18T07:00:31;34.50;;;22.02;;
64094;SDS011;50353;51.420;5.682;2022-08-18T07:05:56;36.60;;;23.25;;
64094;SDS011;50353;51.420;5.682;2022-08-18T07:08:29;32.85;;;20.95;;
64094;SDS011;50353;51.420;5.682;2022-08-18T07:10:55;32.35;;;20.70;;
64094;SDS011;50353;51.420;5.682;2022-08-18T07:13:49;33.35;;;20.85;;
64094;SDS011;50353;51.420;5.682;2022-08-18T07:16:20;34.15;;;21.70;;
64094;SDS011;50353;51.420;5.682;2022-08-18T07:18:48;31.83;;;21.48;;
64094;SDS011;50353;51.420;5.682;2022-08-18T07:21:25;132.13;;;78.88;;
64094;SDS011;50353;51.420;5.682;2022-08-18T07:24:04;31.30;;;20.45;;
64094;SDS011;50353;51.420;5.682;2022-08-18T07:26:56;32.20;;;20.23;;
64094;SDS011;50353;51.420;5.682;2022-08-18T07:29:33;33.95;;;19.30;;
64094;SDS011;50353;51.420;5.682;2022-08-18T07:32:14;45.72;;;27.73;;
64094;SDS011;50353;51.420;5.682;2022-08-18T07:34:47;27.80;;;18.45;;
64094;SDS011;50353;51.420;5.682;2022-08-18T07:37:18;30.05;;;17.77;;
64094;SDS011;50353;51.420;5.682;2022-08-18T07:39:55;26.35;;;15.85;;
64094;SDS011;50353;51.420;5.682;2022-08-18T07:42:38;32.03;;;15.27;;
64094;SDS011;50353;51.420;5.682;2022-08-18T07:45:18;28.23;;;17.52;;
64094;SDS011;50353;51.420;5.682;2022-08-18T07:48:01;45.05;;;28.67;;
64094;SDS011;50353;51.420;5.682;2022-08-18T07:56:32;29.45;;;17.13;;
64094;SDS011;50353;51.420;5.682;2022-08-18T08:01:58;29.85;;;16.63;;
64094;SDS011;50353;51.420;5.682;2022-08-18T08:04:59;29.75;;;16.90;;
64094;SDS011;50353;51.420;5.682;2022-08-18T08:07:34;32.05;;;17.42;;
64094;SDS011;50353;51.420;5.682;2022-08-18T08:10:21;27.70;;;17.83;;
64094;SDS011;50353;51.420;5.682;2022-08-18T08:13:07;27.30;;;16.10;;
64094;SDS011;50353;51.420;5.682;2022-08-18T08:18:49;25.30;;;15.02;;
64094;SDS011;50353;51.420;5.682;2022-08-18T08:21:27;24.48;;;15.77;;
64094;SDS011;50353;51.420;5.682;2022-08-18T08:32:43;24.83;;;14.70;;
64094;SDS011;50353;51.420;5.682;2022-08-18T08:35:15;25.05;;;15.40;;
64094;SDS011;50353;51.420;5.682;2022-08-18T08:37:53;27.58;;;16.52;;
64094;SDS011;50353;51.420;5.682;2022-08-18T08:40:23;24.55;;;16.23;;
64094;SDS011;50353;51.420;5.682;2022-08-18T08:43:00;29.77;;;17.45;;
64094;SDS011;50353;51.420;5.682;2022-08-18T08:45:33;26.25;;;16.88;;
64094;SDS011;50353;51.420;5.682;2022-08-18T08:48:21;32.55;;;17.83;;
64094;SDS011;50353;51.420;5.682;2022-08-18T08:50:50;30.58;;;18.02;;
64094;SDS011;50353;51.420;5.682;2022-08-18T08:53:24;30.67;;;19.50;;
64094;SDS011;50353;51.420;5.682;2022-08-18T08:55:55;23.33;;;15.65;;
64094;SDS011;50353;51.420;5.682;2022-08-18T08:58:26;31.10;;;16.33;;
64094;SDS011;50353;51.420;5.682;2022-08-18T09:04:11;29.58;;;18.25;;
64094;SDS011;50353;51.420;5.682;2022-08-18T09:06:51;26.20;;;16.33;;
64094;SDS011;50353;51.420;5.682;2022-08-18T09:12:11;23.00;;;15.35;;
64094;SDS011;50353;51.420;5.682;2022-08-18T09:18:06;33.78;;;18.13;;
64094;SDS011;50353;51.420;5.682;2022-08-18T09:23:31;27.15;;;17.23;;
64094;SDS011;50353;51.420;5.682;2022-08-18T09:26:22;24.45;;;14.75;;
64094;SDS011;50353;51.420;5.682;2022-08-18T09:28:58;25.83;;;16.13;;
64094;SDS011;50353;51.420;5.682;2022-08-18T09:31:34;21.67;;;15.02;;
64094;SDS011;50353;51.420;5.682;2022-08-18T09:37:02;23.35;;;15.10;;
64094;SDS011;50353;51.420;5.682;2022-08-18T09:39:37;23.50;;;16.48;;
64094;SDS011;50353;51.420;5.682;2022-08-18T09:43:09;21.17;;;14.65;;
64094;SDS011;50353;51.420;5.682;2022-08-18T09:52:54;25.83;;;15.93;;
64094;SDS011;50353;51.420;5.682;2022-08-18T09:57:47;31.30;;;16.73;;
64094;SDS011;50353;51.420;5.682;2022-08-18T10:00:43;22.90;;;15.85;;
64094;SDS011;50353;51.420;5.682;2022-08-18T10:03:10;22.20;;;15.03;;
64094;SDS011;50353;51.420;5.682;2022-08-18T10:05:38;24.63;;;15.40;;
64094;SDS011;50353;51.420;5.682;2022-08-18T10:10:40;27.60;;;16.67;;
64094;SDS011;50353;51.420;5.682;2022-08-18T10:27:35;29.23;;;17.33;;
64094;SDS011;50353;51.420;5.682;2022-08-18T10:32:51;27.25;;;16.73;;
64094;SDS011;50353;51.420;5.682;2022-08-18T10:40:55;18.58;;;12.07;;
64094;SDS011;50353;51.420;5.682;2022-08-18T10:43:45;15.05;;;10.23;;
64094;SDS011;50353;51.420;5.682;2022-08-18T10:46:17;13.40;;;10.45;;
64094;SDS011;50353;51.420;5.682;2022-08-18T10:48:57;19.27;;;12.88;;
64094;SDS011;50353;51.420;5.682;2022-08-18T10:54:48;26.42;;;15.35;;
64094;SDS011;50353;51.420;5.682;2022-08-18T11:00:25;24.90;;;15.38;;
64094;SDS011;50353;51.420;5.682;2022-08-18T11:03:16;18.40;;;14.52;;
64094;SDS011;50353;51.420;5.682;2022-08-18T11:05:49;22.75;;;14.35;;
64094;SDS011;50353;51.420;5.682;2022-08-18T11:08:15;16.27;;;10.20;;
64094;SDS011;50353;51.420;5.682;2022-08-18T11:10:44;21.13;;;14.18;;
64094;SDS011;50353;51.420;5.682;2022-08-18T11:13:26;14.65;;;10.68;;
64094;SDS011;50353;51.420;5.682;2022-08-18T11:18:40;27.50;;;16.02;;
64094;SDS011;50353;51.420;5.682;2022-08-18T11:21:58;26.58;;;14.30;;
64094;SDS011;50353;51.420;5.682;2022-08-18T11:24:09;25.77;;;14.88;;
64094;SDS011;50353;51.420;5.682;2022-08-18T11:27:00;21.27;;;13.80;;
64094;SDS011;50353;51.420;5.682;2022-08-18T11:37:40;24.83;;;15.10;;
64094;SDS011;50353;51.420;5.682;2022-08-18T11:42:49;14.27;;;10.13;;
64094;SDS011;50353;51.420;5.682;2022-08-18T11:45:25;15.18;;;10.38;;
64094;SDS011;50353;51.420;5.682;2022-08-18T11:56:03;19.80;;;12.70;;
64094;SDS011;50353;51.420;5.682;2022-08-18T11:58:51;17.92;;;11.20;;
64094;SDS011;50353;51.420;5.682;2022-08-18T12:06:37;14.65;;;8.65;;
64094;SDS011;50353;51.420;5.682;2022-08-18T12:09:15;8.60;;;6.32;;
64094;SDS011;50353;51.420;5.682;2022-08-18T12:11:53;12.93;;;8.25;;
64094;SDS011;50353;51.420;5.682;2022-08-18T12:14:22;14.82;;;8.98;;
64094;SDS011;50353;51.420;5.682;2022-08-18T12:16:50;13.52;;;10.48;;
64094;SDS011;50353;51.420;5.682;2022-08-18T12:19:16;15.75;;;9.40;;
64094;SDS011;50353;51.420;5.682;2022-08-18T12:21:49;14.50;;;8.98;;
64094;SDS011;50353;51.420;5.682;2022-08-18T12:24:21;14.50;;;9.93;;
64094;SDS011;50353;51.420;5.682;2022-08-18T12:26:49;16.23;;;9.65;;
64094;SDS011;50353;51.420;5.682;2022-08-18T12:29:15;20.88;;;9.18;;
64094;SDS011;50353;51.420;5.682;2022-08-18T12:31:43;11.10;;;6.68;;
64094;SDS011;50353;51.420;5.682;2022-08-18T12:34:09;12.02;;;7.40;;
64094;SDS011;50353;51.420;5.682;2022-08-18T12:36:35;14.03;;;7.97;;
64094;SDS011;50353;51.420;5.682;2022-08-18T12:39:00;14.60;;;8.45;;
64094;SDS011;50353;51.420;5.682;2022-08-18T12:41:26;10.17;;;7.07;;
64094;SDS011;50353;51.420;5.682;2022-08-18T12:43:51;12.00;;;6.80;;
64094;SDS011;50353;51.420;5.682;2022-08-18T12:46:17;10.75;;;6.70;;
64094;SDS011;50353;51.420;5.682;2022-08-18T12:48:43;11.50;;;8.00;;
64094;SDS011;50353;51.420;5.682;2022-08-18T12:51:09;13.57;;;8.07;;
64094;SDS011;50353;51.420;5.682;2022-08-18T12:53:34;11.75;;;7.78;;
64094;SDS011;50353;51.420;5.682;2022-08-18T12:56:00;15.70;;;8.03;;
64094;SDS011;50353;51.420;5.682;2022-08-18T12:58:26;12.83;;;7.87;;
64094;SDS011;50353;51.420;5.682;2022-08-18T13:00:52;11.95;;;8.20;;
64094;SDS011;50353;51.420;5.682;2022-08-18T13:03:17;10.20;;;6.37;;
64094;SDS011;50353;51.420;5.682;2022-08-18T13:05:43;11.88;;;7.43;;
64094;SDS011;50353;51.420;5.682;2022-08-18T13:08:12;9.75;;;5.88;;
64094;SDS011;50353;51.420;5.682;2022-08-18T13:10:42;10.85;;;6.53;;
64094;SDS011;50353;51.420;5.682;2022-08-18T13:13:07;11.03;;;6.87;;
64094;SDS011;50353;51.420;5.682;2022-08-18T13:15:33;12.10;;;6.70;;
64094;SDS011;50353;51.420;5.682;2022-08-18T13:18:00;11.75;;;6.90;;
64094;SDS011;50353;51.420;5.682;2022-08-18T13:20:26;13.25;;;6.95;;
64094;SDS011;50353;51.420;5.682;2022-08-18T13:22:52;11.00;;;6.20;;
64094;SDS011;50353;51.420;5.682;2022-08-18T13:25:17;12.27;;;7.70;;
64094;SDS011;50353;51.420;5.682;2022-08-18T13:27:43;11.43;;;6.97;;
64094;SDS011;50353;51.420;5.682;2022-08-18T13:30:10;13.20;;;7.20;;
64094;SDS011;50353;51.420;5.682;2022-08-18T13:32:38;10.73;;;7.43;;
64094;SDS011;50353;51.420;5.682;2022-08-18T13:35:05;11.68;;;7.80;;
64094;SDS011;50353;51.420;5.682;2022-08-18T13:37:31;12.10;;;5.68;;
64094;SDS011;50353;51.420;5.682;2022-08-18T13:39:57;10.63;;;7.45;;
64094;SDS011;50353;51.420;5.682;2022-08-18T13:44:49;9.95;;;5.47;;
64094;SDS011;50353;51.420;5.682;2022-08-18T13:47:15;14.73;;;8.48;;
64094;SDS011;50353;51.420;5.682;2022-08-18T13:49:41;9.63;;;6.33;;
64094;SDS011;50353;51.420;5.682;2022-08-18T13:52:06;11.73;;;7.57;;
64094;SDS011;50353;51.420;5.682;2022-08-18T13:54:35;9.95;;;6.63;;
64094;SDS011;50353;51.420;5.682;2022-08-18T13:57:01;9.97;;;6.83;;
64094;SDS011;50353;51.420;5.682;2022-08-18T13:59:27;12.25;;;7.40;;
64094;SDS011;50353;51.420;5.682;2022-08-18T14:01:56;9.57;;;6.32;;
64094;SDS011;50353;51.420;5.682;2022-08-18T14:04:22;14.90;;;6.85;;
64094;SDS011;50353;51.420;5.682;2022-08-18T14:06:51;10.10;;;5.85;;
64094;SDS011;50353;51.420;5.682;2022-08-18T14:09:18;10.57;;;5.60;;
64094;SDS011;50353;51.420;5.682;2022-08-18T14:11:44;8.32;;;5.50;;
64094;SDS011;50353;51.420;5.682;2022-08-18T14:14:11;9.43;;;5.55;;
64094;SDS011;50353;51.420;5.682;2022-08-18T14:16:37;11.40;;;6.90;;
64094;SDS011;50353;51.420;5.682;2022-08-18T14:19:03;16.10;;;9.80;;
64094;SDS011;50353;51.420;5.682;2022-08-18T14:21:48;9.20;;;6.10;;
64094;SDS011;50353;51.420;5.682;2022-08-18T14:24:50;9.38;;;6.07;;
64094;SDS011;50353;51.420;5.682;2022-08-18T14:27:35;8.07;;;5.65;;
64094;SDS011;50353;51.420;5.682;2022-08-18T14:30:07;30.65;;;21.08;;
64094;SDS011;50353;51.420;5.682;2022-08-18T14:32:34;21.10;;;13.90;;
64094;SDS011;50353;51.420;5.682;2022-08-18T14:35:00;14.15;;;10.02;;
64094;SDS011;50353;51.420;5.682;2022-08-18T14:37:27;13.90;;;9.75;;
64094;SDS011;50353;51.420;5.682;2022-08-18T14:39:54;13.55;;;7.75;;
64094;SDS011;50353;51.420;5.682;2022-08-18T14:42:20;8.95;;;6.70;;
64094;SDS011;50353;51.420;5.682;2022-08-18T14:44:46;9.07;;;6.77;;
64094;SDS011;50353;51.420;5.682;2022-08-18T14:47:12;11.68;;;6.40;;
64094;SDS011;50353;51.420;5.682;2022-08-18T14:49:39;10.85;;;6.90;;
64094;SDS011;50353;51.420;5.682;2022-08-18T14:52:05;11.00;;;6.70;;
64094;SDS011;50353;51.420;5.682;2022-08-18T14:54:32;9.52;;;6.38;;
64094;SDS011;50353;51.420;5.682;2022-08-18T14:56:58;12.88;;;7.25;;
64094;SDS011;50353;51.420;5.682;2022-08-18T14:59:26;9.60;;;6.50;;
64094;SDS011;50353;51.420;5.682;2022-08-18T15:01:53;13.77;;;7.68;;
64094;SDS011;50353;51.420;5.682;2022-08-18T15:04:18;14.68;;;6.50;;
64094;SDS011;50353;51.420;5.682;2022-08-18T15:06:45;9.43;;;6.50;;
64094;SDS011;50353;51.420;5.682;2022-08-18T15:09:11;12.88;;;7.78;;
64094;SDS011;50353;51.420;5.682;2022-08-18T15:11:36;13.87;;;6.60;;
64094;SDS011;50353;51.420;5.682;2022-08-18T15:14:01;8.47;;;6.13;;
64094;SDS011;50353;51.420;5.682;2022-08-18T15:16:27;12.77;;;9.83;;
64094;SDS011;50353;51.420;5.682;2022-08-18T15:18:52;78.53;;;56.80;;
64094;SDS011;50353;51.420;5.682;2022-08-18T15:21:17;8.77;;;6.80;;
64094;SDS011;50353;51.420;5.682;2022-08-18T15:24:02;11.52;;;6.60;;
64094;SDS011;50353;51.420;5.682;2022-08-18T15:26:46;8.25;;;5.65;;
64094;SDS011;50353;51.420;5.682;2022-08-18T15:29:12;19.10;;;10.15;;
64094;SDS011;50353;51.420;5.682;2022-08-18T15:31:37;11.40;;;6.83;;
64094;SDS011;50353;51.420;5.682;2022-08-18T15:34:03;152.97;;;38.87;;
64094;SDS011;50353;51.420;5.682;2022-08-18T15:38:57;8.35;;;5.55;;
64094;SDS011;50353;51.420;5.682;2022-08-18T15:43:54;8.23;;;5.90;;
64094;SDS011;50353;51.420;5.682;2022-08-18T15:46:20;38.58;;;25.67;;
64094;SDS011;50353;51.420;5.682;2022-08-18T15:48:47;10.95;;;6.00;;
64094;SDS011;50353;51.420;5.682;2022-08-18T15:51:12;8.50;;;5.87;;
64094;SDS011;50353;51.420;5.682;2022-08-18T15:53:37;11.23;;;6.00;;
64094;SDS011;50353;51.420;5.682;2022-08-18T15:56:03;10.38;;;5.63;;
64094;SDS011;50353;51.420;5.682;2022-08-18T15:58:29;12.37;;;5.83;;
64094;SDS011;50353;51.420;5.682;2022-08-18T16:00:54;9.17;;;6.23;;
64094;SDS011;50353;51.420;5.682;2022-08-18T16:03:20;10.18;;;5.80;;
64094;SDS011;50353;51.420;5.682;2022-08-18T16:05:47;10.27;;;5.40;;
64094;SDS011;50353;51.420;5.682;2022-08-18T16:08:18;11.55;;;5.95;;
64094;SDS011;50353;51.420;5.682;2022-08-18T16:10:45;32.92;;;21.70;;
64094;SDS011;50353;51.420;5.682;2022-08-18T16:13:11;10.57;;;6.27;;
64094;SDS011;50353;51.420;5.682;2022-08-18T16:15:39;8.70;;;5.72;;
64094;SDS011;50353;51.420;5.682;2022-08-18T16:18:07;10.15;;;6.43;;
64094;SDS011;50353;51.420;5.682;2022-08-18T16:20:33;40.92;;;24.48;;
64094;SDS011;50353;51.420;5.682;2022-08-18T16:23:00;13.25;;;7.72;;
64094;SDS011;50353;51.420;5.682;2022-08-18T16:25:26;12.35;;;7.88;;
64094;SDS011;50353;51.420;5.682;2022-08-18T16:27:52;13.88;;;6.00;;
64094;SDS011;50353;51.420;5.682;2022-08-18T16:30:23;10.93;;;6.13;;
64094;SDS011;50353;51.420;5.682;2022-08-18T16:32:49;12.32;;;5.82;;
64094;SDS011;50353;51.420;5.682;2022-08-18T16:35:16;8.75;;;6.65;;
64094;SDS011;50353;51.420;5.682;2022-08-18T16:37:46;10.40;;;6.28;;
64094;SDS011;50353;51.420;5.682;2022-08-18T16:40:13;11.98;;;7.70;;
64094;SDS011;50353;51.420;5.682;2022-08-18T16:42:39;8.13;;;6.05;;
64094;SDS011;50353;51.420;5.682;2022-08-18T16:45:04;12.97;;;7.67;;
64094;SDS011;50353;51.420;5.682;2022-08-18T16:47:31;9.93;;;6.47;;
64094;SDS011;50353;51.420;5.682;2022-08-18T16:50:02;9.30;;;6.60;;
64094;SDS011;50353;51.420;5.682;2022-08-18T16:52:36;12.18;;;7.40;;
64094;SDS011;50353;51.420;5.682;2022-08-18T16:55:02;26.42;;;6.80;;
64094;SDS011;50353;51.420;5.682;2022-08-18T16:57:29;10.80;;;6.60;;
64094;SDS011;50353;51.420;5.682;2022-08-18T17:00:13;11.98;;;6.80;;
64094;SDS011;50353;51.420;5.682;2022-08-18T17:03:01;9.77;;;5.97;;
64094;SDS011;50353;51.420;5.682;2022-08-18T17:05:48;13.25;;;6.28;;
64094;SDS011;50353;51.420;5.682;2022-08-18T17:08:14;8.83;;;6.23;;
64094;SDS011;50353;51.420;5.682;2022-08-18T17:10:40;9.15;;;6.43;;
64094;SDS011;50353;51.420;5.682;2022-08-18T17:13:07;26.45;;;15.90;;
64094;SDS011;50353;51.420;5.682;2022-08-18T17:15:32;10.20;;;6.90;;
64094;SDS011;50353;51.420;5.682;2022-08-18T17:17:57;12.03;;;6.37;;
64094;SDS011;50353;51.420;5.682;2022-08-18T17:20:22;10.97;;;6.50;;
64094;SDS011;50353;51.420;5.682;2022-08-18T17:22:48;11.30;;;6.70;;
64094;SDS011;50353;51.420;5.682;2022-08-18T17:25:15;9.43;;;6.47;;
64094;SDS011;50353;51.420;5.682;2022-08-18T17:27:45;9.63;;;5.75;;
64094;SDS011;50353;51.420;5.682;2022-08-18T17:30:16;8.02;;;6.28;;